TimeMDT,TemperatureF,Dew PointF,Humidity,Sea Level PressureIn,VisibilityMPH,Wind Direction,Wind SpeedMPH,Gust SpeedMPH,PrecipitationIn,Events,Conditions,WindDirDegrees,DateUTC
12:54 AM,48.9,39.0,69,29.87,10.0,NW,12.7,-,N/A,,Scattered Clouds,320,2013-05-08 06:54:00
1:54 AM,48.0,37.9,68,29.86,10.0,NW,10.4,-,N/A,,Mostly Cloudy,320,2013-05-08 07:54:00
2:54 AM,48.0,37.0,66,29.83,10.0,NNW,10.4,-,N/A,,Mostly Cloudy,330,2013-05-08 08:54:00
3:54 AM,48.9,37.0,64,29.85,10.0,NW,5.8,-,N/A,,Mostly Cloudy,310,2013-05-08 09:54:00
4:54 AM,48.9,36.0,61,29.86,10.0,West,6.9,-,N/A,,Overcast,270,2013-05-08 10:54:00
5:54 AM,48.9,39.0,69,29.88,7.0,WSW,11.5,-,0.00,Rain,Light Rain,240,2013-05-08 11:54:00
6:54 AM,48.0,39.9,74,29.92,10.0,NE,11.5,-,0.02,,Mostly Cloudy,40,2013-05-08 12:54:00
7:54 AM,48.9,39.9,71,29.93,10.0,NNW,8.1,-,0.00,,Mostly Cloudy,330,2013-05-08 13:54:00
8:54 AM,50.0,39.9,68,29.93,10.0,NNW,8.1,-,N/A,,Mostly Cloudy,340,2013-05-08 14:54:00
9:10 AM,51.8,37.4,58,30.05,10.0,North,8.1,-,N/A,Thunderstorm,Thunderstorm,360,2013-05-08 15:10:00
9:54 AM,52.0,37.9,59,29.93,10.0,NE,3.5,-,N/A,,Mostly Cloudy,50,2013-05-08 15:54:00
10:54 AM,48.9,39.9,71,29.97,10.0,East,11.5,-,0.00,Rain,Light Rain,90,2013-05-08 16:54:00
11:35 AM,46.4,41.0,81,30.09,7.0,SSE,18.4,-,0.02,Rain,Light Rain,160,2013-05-08 17:35:00
11:54 AM,45.0,41.0,86,30.04,4.0,SSE,18.4,-,0.04,Rain,Rain,150,2013-05-08 17:54:00
12:54 PM,44.1,41.0,89,30.04,7.0,East,9.2,-,0.12,Rain,Light Rain,80,2013-05-08 18:54:00
1:37 PM,44.6,39.2,81,30.04,7.0,NW,29.9,38.0,0.06,Rain,Light Rain,320,2013-05-08 19:37:00
1:54 PM,45.0,39.9,82,29.96,10.0,NNW,21.9,34.5,0.06,Rain,Light Rain,340,2013-05-08 19:54:00
2:54 PM,46.9,43.0,86,29.95,10.0,NNW,17.3,23.0,0.00,,Mostly Cloudy,340,2013-05-08 20:54:00
3:54 PM,51.1,37.0,59,29.94,10.0,NNW,6.9,-,N/A,,Mostly Cloudy,330,2013-05-08 21:54:00
4:54 PM,50.0,37.0,61,29.96,10.0,Variable,5.8,-,N/A,,Overcast,0,2013-05-08 22:54:00
5:54 PM,51.1,35.1,54,29.90,10.0,NNW,16.1,21.9,N/A,,Overcast,340,2013-05-08 23:54:00
6:54 PM,48.9,36.0,61,29.93,10.0,North,13.8,-,N/A,,Mostly Cloudy,360,2013-05-09 00:54:00
7:54 PM,46.9,35.1,63,29.96,10.0,NNW,19.6,24.2,N/A,,Mostly Cloudy,340,2013-05-09 01:54:00
8:54 PM,46.0,37.0,71,30.01,10.0,NNW,17.3,26.5,N/A,,Mostly Cloudy,330,2013-05-09 02:54:00
9:54 PM,46.0,37.0,71,30.02,10.0,NW,13.8,-,N/A,,Overcast,320,2013-05-09 03:54:00
10:54 PM,46.0,37.9,73,30.04,10.0,WNW,9.2,-,N/A,,Overcast,290,2013-05-09 04:54:00
11:54 PM,45.0,37.0,74,30.07,10.0,WNW,9.2,-,N/A,,Overcast,300,2013-05-09 05:54:00